Time;durP1;ratioP1;P1;durP2;ratioP2;P2;SDS_P1;SDS_P2;PMS_P1;PMS_P2;Temp;Humidity;BMP_temperature;BMP_pressure;BME280_temperature;BME280_humidity;BME280_pressure;Samples;Min_cycle;Max_cycle;Signal;HPM_P1;HPM_P2
2020/12/14 00:00:00;;;;;;;42.87;18.87;;;6.20;99.90;;;;;;4966145;28;20255;-81
2020/12/14 00:02:27;;;;;;;57.08;20.58;;;6.20;99.90;;;;;;4985961;28;20176;-80
2020/12/14 00:04:54;;;;;;;46.28;18.95;;;6.20;99.90;;;;;;4953185;29;20251;-81
2020/12/14 00:07:20;;;;;;;51.90;19.38;;;6.20;99.90;;;;;;4984018;28;20172;-81
2020/12/14 00:09:47;;;;;;;47.30;17.52;;;6.20;99.90;;;;;;4967645;29;20183;-80
2020/12/14 00:12:13;;;;;;;43.28;19.05;;;6.20;99.90;;;;;;4968118;29;20172;-80
2020/12/14 00:14:38;;;;;;;44.63;20.17;;;6.30;99.90;;;;;;4969148;29;20188;-80
2020/12/14 00:17:05;;;;;;;43.80;18.67;;;6.20;99.90;;;;;;4970963;29;20204;-80
2020/12/14 00:19:31;;;;;;;46.10;20.50;;;6.30;99.90;;;;;;4971898;29;20276;-80
2020/12/14 00:21:56;;;;;;;56.92;18.38;;;6.10;99.90;;;;;;4972400;29;20177;-80
2020/12/14 00:24:22;;;;;;;45.57;19.77;;;6.40;99.90;;;;;;4968288;29;20309;-80
2020/12/14 00:26:52;;;;;;;55.37;19.83;;;6.30;99.90;;;;;;4968334;29;20541;-80
2020/12/14 00:29:19;;;;;;;50.65;21.00;;;6.20;99.90;;;;;;4968072;28;20507;-80
2020/12/14 00:31:50;;;;;;;54.50;18.00;;;6.20;99.90;;;;;;4967843;28;20192;-80
2020/12/14 00:34:16;;;;;;;42.08;18.05;;;6.30;99.90;;;;;;4969356;28;20172;-80
2020/12/14 00:36:44;;;;;;;40.90;20.10;;;6.30;99.90;;;;;;4967481;28;20574;-80
2020/12/14 00:39:09;;;;;;;46.75;19.60;;;6.30;99.90;;;;;;4969006;28;20412;-81
2020/12/14 00:41:35;;;;;;;51.00;17.97;;;6.40;99.90;;;;;;4966413;28;20211;-80
2020/12/14 00:44:03;;;;;;;47.57;19.17;;;6.30;99.90;;;;;;4967405;29;20188;-80
2020/12/14 00:46:29;;;;;;;43.67;18.35;;;6.30;99.90;;;;;;4982010;28;20315;-80
2020/12/14 00:48:55;;;;;;;44.50;18.00;;;6.20;99.90;;;;;;4983071;28;20176;-80
2020/12/14 00:51:30;;;;;;;50.67;17.57;;;6.30;99.90;;;;;;4967228;29;20181;-79
2020/12/14 00:53:57;;;;;;;44.75;19.38;;;6.30;99.90;;;;;;4967477;28;20199;-80
2020/12/14 00:56:23;;;;;;;58.08;22.80;;;6.30;99.90;;;;;;4967177;29;20287;-79
2020/12/14 00:58:49;;;;;;;40.33;18.87;;;6.20;99.90;;;;;;4966194;29;20169;-81
2020/12/14 01:01:16;;;;;;;41.83;17.43;;;6.30;99.90;;;;;;4968581;28;20408;-81
2020/12/14 01:03:42;;;;;;;40.42;19.92;;;6.30;99.90;;;;;;4967813;29;20411;-81
2020/12/14 01:06:08;;;;;;;34.60;18.10;;;6.20;99.90;;;;;;4965270;29;20204;-81
2020/12/14 01:08:34;;;;;;;34.57;16.73;;;6.30;99.90;;;;;;4967990;29;20270;-80
2020/12/14 01:11:03;;;;;;;51.55;18.25;;;6.20;99.90;;;;;;4968050;29;20555;-80
2020/12/14 01:13:29;;;;;;;40.50;18.20;;;6.30;99.90;;;;;;4969317;29;20172;-81
2020/12/14 01:15:54;;;;;;;39.73;17.13;;;6.30;99.90;;;;;;4968309;29;20203;-80
2020/12/14 01:18:20;;;;;;;41.77;17.80;;;6.20;99.90;;;;;;4968428;28;20404;-81
2020/12/14 01:20:46;;;;;;;40.90;18.87;;;6.30;99.90;;;;;;4968484;29;20175;-81
2020/12/14 01:23:12;;;;;;;36.70;16.10;;;6.40;99.90;;;;;;4952204;29;20195;-81
2020/12/14 01:25:38;;;;;;;41.10;17.13;;;6.50;99.90;;;;;;4969176;28;20439;-80
2020/12/14 01:28:06;;;;;;;42.40;19.00;;;6.40;99.90;;;;;;4966733;29;20267;-80
2020/12/14 01:30:33;;;;;;;47.90;18.25;;;6.30;99.90;;;;;;4949238;28;20198;-80
2020/12/14 01:32:59;;;;;;;49.70;16.67;;;6.40;99.90;;;;;;4968189;29;20174;-82
2020/12/14 01:35:25;;;;;;;40.83;18.38;;;6.50;99.90;;;;;;4968077;28;20408;-80
2020/12/14 01:37:51;;;;;;;44.57;18.60;;;6.40;99.90;;;;;;4967191;29;20187;-81
2020/12/14 01:40:18;;;;;;;38.92;16.05;;;6.40;99.90;;;;;;4950927;29;20207;-80
2020/12/14 01:42:44;;;;;;;40.22;18.48;;;6.30;99.90;;;;;;4966177;28;20196;-80
2020/12/14 01:45:10;;;;;;;38.37;15.70;;;6.40;99.90;;;;;;4964289;29;20204;-80
2020/12/14 01:47:43;;;;;;;48.70;18.25;;;6.40;99.90;;;;;;4963493;28;20415;-79
2020/12/14 01:50:11;;;;;;;51.63;17.30;;;6.40;99.90;;;;;;4961031;29;20183;-80
2020/12/14 01:52:40;;;;;;;47.97;17.92;;;6.50;99.90;;;;;;4958281;29;20181;-81
2020/12/14 01:55:07;;;;;;;35.83;16.35;;;6.40;99.90;;;;;;4942491;29;20196;-80
2020/12/14 01:57:33;;;;;;;45.00;17.48;;;6.40;99.90;;;;;;4958442;28;20244;-80
2020/12/14 01:59:59;;;;;;;35.10;17.50;;;6.40;99.90;;;;;;4957026;28;20168;-80
2020/12/14 02:02:25;;;;;;;45.30;18.10;;;6.40;99.90;;;;;;4955315;29;20203;-80
2020/12/14 02:04:51;;;;;;;36.22;15.77;;;6.30;99.90;;;;;;4957026;29;20192;-80
2020/12/14 02:07:17;;;;;;;41.23;16.33;;;6.50;99.90;;;;;;4957554;29;20177;-80
2020/12/14 02:09:42;;;;;;;40.27;18.07;;;6.50;99.90;;;;;;4956113;28;20419;-79
2020/12/14 02:12:08;;;;;;;35.07;16.90;;;6.50;99.90;;;;;;4972014;28;20164;-79
2020/12/14 02:14:37;;;;;;;49.92;16.42;;;6.50;99.90;;;;;;4964589;28;20169;-80
2020/12/14 02:17:07;;;;;;;43.17;18.08;;;6.60;99.90;;;;;;4964988;29;20210;-81
2020/12/14 02:19:32;;;;;;;42.17;15.02;;;6.50;99.90;;;;;;4965897;29;20175;-81
2020/12/14 02:21:58;;;;;;;46.47;16.90;;;6.40;99.90;;;;;;4961560;29;20176;-79
2020/12/14 02:24:27;;;;;;;40.63;17.57;;;6.50;99.90;;;;;;4962781;29;20180;-80
2020/12/14 02:26:52;;;;;;;214.27;86.55;;;6.40;99.90;;;;;;4965195;29;20205;-80
2020/12/14 02:29:19;;;;;;;218.13;88.20;;;6.50;99.90;;;;;;4968166;28;20196;-80
2020/12/14 02:31:46;;;;;;;111.85;48.10;;;6.50;99.90;;;;;;4960938;28;20199;-80
2020/12/14 02:34:11;;;;;;;154.57;69.22;;;6.50;99.90;;;;;;4978595;28;20674;-80
2020/12/14 02:36:39;;;;;;;51.03;22.37;;;6.50;99.90;;;;;;4962964;29;20208;-80
2020/12/14 02:39:05;;;;;;;35.00;15.30;;;6.60;99.90;;;;;;4962810;29;20187;-80
2020/12/14 02:41:31;;;;;;;46.37;16.13;;;6.50;99.90;;;;;;4961374;29;20181;-79
2020/12/14 02:43:57;;;;;;;34.00;16.00;;;6.50;99.90;;;;;;4995434;28;20455;-79
2020/12/14 02:46:23;;;;;;;39.47;13.90;;;6.60;99.90;;;;;;4988743;28;20435;-80
2020/12/14 02:48:49;;;;;;;33.93;14.47;;;6.50;99.90;;;;;;4984377;28;20451;-80
2020/12/14 02:51:18;;;;;;;45.90;16.00;;;6.50;99.90;;;;;;4967706;29;20177;-81
2020/12/14 02:53:44;;;;;;;37.95;19.23;;;6.60;99.90;;;;;;4966769;29;20400;-81
2020/12/14 02:56:10;;;;;;;43.33;18.80;;;6.60;99.90;;;;;;4966356;28;20938;-80
2020/12/14 02:58:36;;;;;;;46.03;18.50;;;6.60;99.90;;;;;;4967123;29;20438;-80
2020/12/14 03:01:02;;;;;;;39.90;17.00;;;6.60;99.90;;;;;;4966593;29;20169;-79
2020/12/14 03:03:28;;;;;;;41.20;17.40;;;6.60;99.90;;;;;;4966834;29;20426;-80
2020/12/14 03:05:56;;;;;;;76.50;28.67;;;6.80;99.90;;;;;;4967468;29;20196;-80
2020/12/14 03:08:22;;;;;;;54.10;19.00;;;6.70;99.90;;;;;;4966607;29;20180;-80
2020/12/14 03:10:47;;;;;;;44.67;19.87;;;6.60;99.90;;;;;;4965548;29;20203;-80
2020/12/14 03:13:13;;;;;;;58.33;22.63;;;6.70;99.90;;;;;;4965472;28;20187;-79
2020/12/14 03:15:40;;;;;;;35.17;13.90;;;6.70;99.90;;;;;;4965913;29;20200;-80
2020/12/14 03:18:06;;;;;;;34.55;15.75;;;6.70;99.90;;;;;;4964118;28;20180;-80
2020/12/14 03:20:35;;;;;;;41.40;16.63;;;6.70;99.90;;;;;;4965169;28;20310;-80
2020/12/14 03:23:01;;;;;;;45.92;15.82;;;6.80;99.90;;;;;;4981847;28;20180;-81
2020/12/14 03:25:26;;;;;;;67.47;24.50;;;6.70;99.90;;;;;;4968083;29;20200;-81
2020/12/14 03:27:52;;;;;;;57.10;21.07;;;6.70;99.90;;;;;;4950290;29;20204;-80
2020/12/14 03:30:18;;;;;;;49.63;16.53;;;6.70;99.90;;;;;;4968299;28;20627;-80
2020/12/14 03:32:45;;;;;;;37.90;16.93;;;6.70;99.90;;;;;;4968343;29;20420;-80
2020/12/14 03:35:11;;;;;;;33.38;16.48;;;6.70;99.90;;;;;;4967491;29;20451;-79
2020/12/14 03:37:36;;;;;;;32.95;13.90;;;6.80;99.90;;;;;;4968011;29;20200;-80
2020/12/14 03:40:03;;;;;;;32.43;14.97;;;6.90;99.90;;;;;;4967255;28;20173;-81
2020/12/14 03:42:29;;;;;;;39.75;16.90;;;6.80;99.90;;;;;;4982854;28;20177;-81
2020/12/14 03:44:55;;;;;;;36.85;14.52;;;6.80;99.90;;;;;;4968031;28;20194;-79
2020/12/14 03:47:21;;;;;;;33.40;15.40;;;6.80;99.90;;;;;;4950905;29;20243;-80
2020/12/14 03:49:47;;;;;;;40.13;14.43;;;6.80;99.90;;;;;;4968950;29;20458;-79
2020/12/14 03:52:12;;;;;;;41.57;17.63;;;6.80;99.90;;;;;;4967500;28;20231;-81
2020/12/14 03:54:38;;;;;;;35.93;15.43;;;6.80;99.90;;;;;;4966978;28;20656;-80
2020/12/14 03:57:03;;;;;;;37.17;14.97;;;6.70;99.90;;;;;;4966398;29;20204;-80
2020/12/14 03:59:29;;;;;;;29.73;15.50;;;6.70;99.90;;;;;;4967780;29;20180;-80
2020/12/14 04:01:57;;;;;;;30.13;13.30;;;6.60;99.90;;;;;;4964938;29;20199;-79
2020/12/14 04:04:23;;;;;;;32.83;12.93;;;6.60;99.90;;;;;;4964567;29;20199;-79
2020/12/14 04:06:49;;;;;;;30.08;11.70;;;6.50;99.90;;;;;;4965306;28;20188;-80
2020/12/14 04:09:15;;;;;;;23.00;12.20;;;6.50;99.90;;;;;;4963334;28;20180;-80
2020/12/14 04:11:40;;;;;;;26.87;13.50;;;6.50;99.90;;;;;;4966049;29;20255;-80
2020/12/14 04:14:06;;;;;;;29.90;14.47;;;6.50;99.90;;;;;;4950234;28;20643;-80
2020/12/14 04:16:31;;;;;;;25.37;12.67;;;6.50;99.90;;;;;;4965564;29;20212;-79
2020/12/14 04:18:57;;;;;;;24.23;11.53;;;6.40;99.90;;;;;;4965856;29;20207;-80
2020/12/14 04:21:23;;;;;;;20.37;10.00;;;6.30;99.90;;;;;;4947946;28;20188;-80
2020/12/14 04:23:48;;;;;;;25.77;10.10;;;6.40;99.90;;;;;;4964152;28;20200;-80
2020/12/14 04:26:14;;;;;;;21.13;11.57;;;6.50;99.90;;;;;;4965220;29;20711;-80
2020/12/14 04:28:40;;;;;;;21.17;11.95;;;6.50;99.90;;;;;;4948900;29;20219;-80
2020/12/14 04:31:06;;;;;;;29.50;12.35;;;6.40;99.90;;;;;;4964735;28;20207;-80
2020/12/14 04:33:32;;;;;;;24.50;12.00;;;6.40;99.90;;;;;;4964527;29;20230;-80
2020/12/14 04:35:58;;;;;;;29.83;14.47;;;6.40;99.90;;;;;;4948855;29;20216;-81
2020/12/14 04:38:24;;;;;;;21.13;13.07;;;6.30;99.90;;;;;;4965673;29;20184;-81
2020/12/14 04:40:49;;;;;;;32.33;14.30;;;6.50;99.90;;;;;;4961026;29;20187;-81
2020/12/14 04:43:15;;;;;;;22.97;11.60;;;6.50;99.90;;;;;;4963309;29;20169;-81
2020/12/14 04:45:43;;;;;;;30.90;12.77;;;6.50;99.90;;;;;;4962214;28;20207;-81
2020/12/14 04:48:09;;;;;;;29.25;12.75;;;6.50;99.90;;;;;;4963695;28;20204;-81
2020/12/14 04:50:38;;;;;;;20.53;11.67;;;6.40;99.90;;;;;;4965689;29;20179;-82
2020/12/14 04:53:05;;;;;;;31.63;13.35;;;6.40;99.90;;;;;;4964387;28;20503;-81
2020/12/14 04:55:35;;;;;;;27.17;12.15;;;6.40;99.90;;;;;;4963640;29;20204;-81
2020/12/14 04:58:03;;;;;;;22.85;11.77;;;6.30;99.90;;;;;;4967783;28;20710;-81
2020/12/14 05:00:29;;;;;;;20.30;11.20;;;6.30;99.90;;;;;;4966731;28;20191;-81
2020/12/14 05:02:56;;;;;;;22.57;11.90;;;6.40;99.90;;;;;;4966854;29;20168;-80
2020/12/14 05:05:26;;;;;;;20.40;11.68;;;6.50;99.90;;;;;;4965927;29;20203;-82
2020/12/14 05:07:52;;;;;;;26.10;12.35;;;6.40;99.90;;;;;;4981645;28;20191;-81
2020/12/14 05:10:29;;;;;;;24.58;12.85;;;6.50;99.90;;;;;;4966330;28;20176;-80
2020/12/14 05:12:55;;;;;;;20.77;11.45;;;6.40;99.90;;;;;;4981486;28;20180;-79
2020/12/14 05:15:22;;;;;;;19.60;11.43;;;6.30;99.90;;;;;;4965993;29;20215;-80
2020/12/14 05:17:49;;;;;;;21.17;9.88;;;6.30;99.90;;;;;;4982009;28;20590;-81
2020/12/14 05:20:17;;;;;;;23.73;11.57;;;6.50;99.90;;;;;;4979598;28;20204;-79
2020/12/14 05:23:03;;;;;;;18.80;10.77;;;6.40;99.90;;;;;;4963378;28;20259;-79
2020/12/14 05:25:29;;;;;;;14.63;9.75;;;6.40;99.90;;;;;;4962383;29;20206;-81
2020/12/14 05:28:12;;;;;;;22.65;12.13;;;6.50;99.90;;;;;;4966666;29;20180;-80
2020/12/14 05:30:41;;;;;;;22.85;10.00;;;6.40;99.90;;;;;;4964757;28;20216;-80
2020/12/14 05:33:07;;;;;;;27.02;11.50;;;6.50;99.90;;;;;;4981302;28;20273;-80
2020/12/14 05:35:41;;;;;;;22.35;12.02;;;6.40;99.90;;;;;;4965666;28;20241;-81
2020/12/14 05:38:28;;;;;;;21.33;11.02;;;6.40;99.90;;;;;;4961527;29;20223;-81
2020/12/14 05:40:58;;;;;;;25.45;11.98;;;6.50;99.90;;;;;;4961240;28;20272;-81
2020/12/14 05:43:34;;;;;;;25.63;10.75;;;6.40;99.90;;;;;;4962597;29;20200;-80
2020/12/14 05:46:15;;;;;;;17.30;9.55;;;6.30;99.90;;;;;;4961142;29;20266;-79
2020/12/14 05:48:41;;;;;;;19.70;12.10;;;6.50;99.90;;;;;;4960071;29;20214;-81
2020/12/14 05:51:08;;;;;;;18.73;10.97;;;6.50;99.90;;;;;;4958336;29;20636;-80
2020/12/14 05:53:50;;;;;;;22.98;11.43;;;6.30;99.90;;;;;;4960303;29;20420;-80
2020/12/14 05:56:17;;;;;;;19.38;10.52;;;6.30;99.90;;;;;;4959467;28;20208;-81
2020/12/14 05:58:44;;;;;;;19.27;11.30;;;6.50;99.90;;;;;;4961408;29;20667;-80
2020/12/14 06:01:10;;;;;;;37.55;14.88;;;6.50;99.90;;;;;;4973640;28;20171;-80
2020/12/14 06:03:36;;;;;;;23.67;11.93;;;6.40;99.90;;;;;;4976629;28;20176;-80
2020/12/14 06:06:09;;;;;;;26.00;12.50;;;6.40;99.90;;;;;;4975718;28;20210;-81
2020/12/14 06:09:01;;;;;;;24.90;12.48;;;6.40;99.90;;;;;;4961185;29;20210;-81
2020/12/14 06:11:27;;;;;;;20.88;10.82;;;6.40;99.90;;;;;;4974423;28;20195;-82
2020/12/14 06:13:55;;;;;;;27.23;13.37;;;6.40;99.90;;;;;;4983131;28;20198;-82
2020/12/14 06:16:22;;;;;;;18.38;10.60;;;6.30;99.90;;;;;;4982783;28;20299;-81
2020/12/14 06:18:48;;;;;;;21.45;11.50;;;6.50;99.90;;;;;;4980824;28;20190;-83
2020/12/14 06:21:36;;;;;;;22.90;12.30;;;6.50;99.90;;;;;;4983582;28;20586;-82
2020/12/14 06:24:05;;;;;;;30.58;13.40;;;6.40;99.90;;;;;;4981863;28;20530;-82
2020/12/14 06:26:34;;;;;;;24.60;12.18;;;6.30;99.90;;;;;;4966231;28;20678;-81
2020/12/14 06:28:59;;;;;;;19.75;13.10;;;6.50;99.90;;;;;;4979985;28;20620;-83
2020/12/14 06:31:39;;;;;;;26.83;11.37;;;6.40;99.90;;;;;;4981585;28;20291;-82
2020/12/14 06:34:31;;;;;;;23.10;11.48;;;6.30;99.90;;;;;;4981169;28;20544;-82
2020/12/14 06:36:57;;;;;;;25.90;12.50;;;6.20;99.90;;;;;;4983505;28;20187;-82
2020/12/14 06:39:28;;;;;;;21.35;10.95;;;6.30;99.90;;;;;;4963686;28;20164;-81
2020/12/14 06:42:14;;;;;;;23.45;12.23;;;6.30;99.90;;;;;;4977391;28;20171;-82
2020/12/14 06:44:45;;;;;;;16.55;9.85;;;6.20;99.90;;;;;;4967117;28;20813;-80
2020/12/14 06:47:15;;;;;;;22.38;10.70;;;6.20;99.90;;;;;;4983525;28;20172;-80
2020/12/14 06:49:42;;;;;;;19.65;10.57;;;6.20;99.90;;;;;;4981668;28;20582;-81
2020/12/14 06:52:08;;;;;;;22.13;11.48;;;6.40;99.90;;;;;;4982630;28;20203;-79
2020/12/14 06:54:44;;;;;;;16.37;9.00;;;6.30;99.90;;;;;;4980735;28;20179;-80
2020/12/14 06:57:15;;;;;;;24.35;11.77;;;6.20;99.90;;;;;;4982172;28;20442;-80
2020/12/14 06:59:49;;;;;;;21.00;12.65;;;6.30;99.90;;;;;;4985073;28;20251;-81
2020/12/14 07:02:15;;;;;;;22.98;12.50;;;6.40;99.90;;;;;;4980644;28;20502;-81
2020/12/14 07:04:42;;;;;;;19.20;10.93;;;6.30;99.90;;;;;;4960962;28;20211;-81
2020/12/14 07:07:10;;;;;;;19.42;11.00;;;6.20;99.90;;;;;;4966387;29;20269;-84
2020/12/14 07:09:38;;;;;;;20.10;11.43;;;6.30;99.90;;;;;;4984025;28;20234;-81
2020/12/14 07:12:09;;;;;;;18.10;11.23;;;6.30;99.90;;;;;;4989850;28;20180;-82
2020/12/14 07:14:46;;;;;;;20.65;11.13;;;6.30;99.90;;;;;;4983682;28;20179;-82
2020/12/14 07:17:28;;;;;;;23.00;11.27;;;6.30;99.90;;;;;;4982192;28;20226;-82
2020/12/14 07:20:03;;;;;;;22.42;12.60;;;6.30;99.90;;;;;;4981737;28;20172;-82
2020/12/14 07:22:46;;;;;;;17.17;10.32;;;6.30;99.90;;;;;;4980192;28;20215;-81
2020/12/14 07:25:21;;;;;;;25.63;11.07;;;6.30;99.90;;;;;;4983569;28;20223;-83
2020/12/14 07:27:46;;;;;;;19.83;11.60;;;6.40;99.90;;;;;;4983339;28;20221;-83
2020/12/14 07:30:12;;;;;;;18.13;10.87;;;6.20;99.90;;;;;;4957157;28;739103;-85
2020/12/14 07:32:39;;;;;;;23.20;10.00;;;6.30;99.90;;;;;;4983898;28;20168;-84
2020/12/14 07:35:07;;;;;;;20.10;10.50;;;6.40;99.90;;;;;;4966578;28;20199;-82
2020/12/14 07:37:34;;;;;;;22.25;10.50;;;6.40;99.90;;;;;;4982554;28;20211;-82
2020/12/14 07:39:59;;;;;;;20.35;11.38;;;6.30;99.90;;;;;;4963024;29;20203;-84
2020/12/14 07:42:25;;;;;;;21.20;11.50;;;6.30;99.90;;;;;;4960640;29;20267;-82
2020/12/14 07:45:12;;;;;;;15.95;9.77;;;6.40;99.90;;;;;;4952008;28;20290;-83
2020/12/14 07:47:39;;;;;;;23.02;11.82;;;6.40;99.90;;;;;;4979663;28;20647;-84
2020/12/14 07:50:24;;;;;;;20.38;11.02;;;6.30;99.90;;;;;;4985025;28;20698;-83
2020/12/14 07:52:53;;;;;;;19.98;9.65;;;6.50;99.90;;;;;;4979169;28;20188;-85
2020/12/14 07:55:19;;;;;;;17.45;9.43;;;6.50;99.90;;;;;;4978321;28;20199;-83
2020/12/14 07:57:47;;;;;;;19.23;11.52;;;6.30;99.90;;;;;;4979194;28;20203;-82
2020/12/14 08:00:20;;;;;;;21.38;11.30;;;6.40;99.90;;;;;;4981908;28;20211;-83
2020/12/14 08:02:46;;;;;;;25.00;13.40;;;6.40;99.90;;;;;;4996966;28;20175;-83
2020/12/14 08:05:17;;;;;;;17.27;10.38;;;6.50;99.90;;;;;;4981235;28;20585;-84
2020/12/14 08:07:52;;;;;;;19.95;10.65;;;6.40;99.90;;;;;;4960543;28;20545;-82
2020/12/14 08:10:33;;;;;;;17.15;9.68;;;6.30;99.90;;;;;;4963629;29;20180;-83
2020/12/14 08:13:10;;;;;;;19.20;9.70;;;6.50;99.90;;;;;;4963812;29;20179;-82
2020/12/14 08:15:38;;;;;;;13.73;9.25;;;6.50;99.90;;;;;;4964016;29;20219;-84
2020/12/14 08:18:18;;;;;;;18.10;9.55;;;6.50;99.90;;;;;;4977494;28;20188;-82
2020/12/14 08:20:43;;;;;;;21.08;10.48;;;6.50;99.90;;;;;;4962396;28;20202;-84
2020/12/14 08:23:20;;;;;;;19.03;10.63;;;6.60;99.90;;;;;;4945493;28;20830;-82
2020/12/14 08:25:49;;;;;;;18.98;10.48;;;6.60;99.90;;;;;;4960585;29;20191;-84
2020/12/14 08:28:17;;;;;;;17.23;10.40;;;6.50;99.90;;;;;;4960739;28;20176;-82
2020/12/14 08:30:43;;;;;;;17.58;10.68;;;6.60;99.90;;;;;;4960492;28;20651;-83
2020/12/14 08:33:21;;;;;;;16.00;10.20;;;6.60;99.90;;;;;;4960311;29;20184;-83
2020/12/14 08:35:52;;;;;;;18.30;10.45;;;6.60;99.90;;;;;;4961203;28;20226;-82
2020/12/14 08:38:23;;;;;;;19.50;10.57;;;6.60;99.90;;;;;;4961771;28;20239;-82
2020/12/14 08:40:56;;;;;;;23.90;10.77;;;6.40;99.90;;;;;;4959011;28;20206;-81
2020/12/14 08:43:27;;;;;;;22.58;11.73;;;6.40;99.90;;;;;;4957716;29;20168;-81
2020/12/14 08:46:07;;;;;;;20.27;10.13;;;6.50;99.90;;;;;;4958247;28;20199;-81
2020/12/14 08:48:45;;;;;;;21.92;9.55;;;6.70;99.90;;;;;;4960750;28;20211;-81
2020/12/14 08:51:23;;;;;;;16.02;10.75;;;6.60;99.90;;;;;;4959882;29;20690;-82
2020/12/14 08:53:51;;;;;;;21.30;11.73;;;6.70;99.90;;;;;;4965598;28;20174;-82
2020/12/14 08:56:19;;;;;;;22.58;12.18;;;6.70;99.90;;;;;;4958009;28;20568;-82
2020/12/14 08:58:58;;;;;;;16.75;9.98;;;6.70;99.90;;;;;;4958510;29;20199;-82
2020/12/14 09:01:32;;;;;;;20.67;10.07;;;6.80;99.90;;;;;;4975164;28;20171;-82
2020/12/14 09:04:03;;;;;;;19.80;11.68;;;6.70;99.90;;;;;;4959683;29;20180;-82
2020/12/14 09:06:31;;;;;;;22.48;10.73;;;6.80;99.90;;;;;;4960404;28;20200;-82
2020/12/14 09:09:09;;;;;;;16.63;9.88;;;6.80;99.90;;;;;;4959207;28;20198;-82
2020/12/14 09:11:47;;;;;;;17.10;10.35;;;6.90;99.90;;;;;;4941864;29;20683;-81
2020/12/14 09:14:21;;;;;;;16.83;10.93;;;6.90;99.90;;;;;;4957158;29;20172;-83
2020/12/14 09:16:49;;;;;;;17.38;9.73;;;7.00;99.90;;;;;;4957746;29;20218;-82
2020/12/14 09:19:19;;;;;;;18.40;10.82;;;7.00;99.90;;;;;;4956852;29;20168;-82
2020/12/14 09:21:45;;;;;;;14.27;10.15;;;7.10;99.90;;;;;;4957948;28;20176;-78
2020/12/14 09:24:17;;;;;;;22.70;11.77;;;8.20;99.90;;;;;;4979060;28;20241;-79
2020/12/14 09:26:50;;;;;;;20.67;11.73;;;8.60;99.90;;;;;;4980497;28;20674;-79
2020/12/14 09:29:19;;;;;;;20.92;12.52;;;9.40;99.90;;;;;;4981554;28;20716;-80
2020/12/14 09:31:53;;;;;;;22.63;11.10;;;9.70;99.90;;;;;;4979122;28;20230;-79
2020/12/14 09:34:26;;;;;;;16.95;11.75;;;9.50;99.90;;;;;;4983437;28;20222;-79
2020/12/14 09:36:58;;;;;;;19.83;10.32;;;9.10;99.90;;;;;;5011125;28;20215;-79
2020/12/14 09:39:26;;;;;;;21.75;12.30;;;10.20;99.90;;;;;;4979798;28;20163;-78
2020/12/14 09:41:55;;;;;;;15.65;9.57;;;9.60;99.90;;;;;;4979249;28;20175;-80
2020/12/14 09:44:31;;;;;;;19.05;10.63;;;10.30;99.90;;;;;;5010279;28;20194;-81
2020/12/14 09:47:04;;;;;;;18.65;10.73;;;11.20;99.90;;;;;;4978558;28;20202;-79
2020/12/14 09:49:30;;;;;;;20.52;11.13;;;11.50;99.90;;;;;;4987636;28;20572;-82
2020/12/14 09:51:56;;;;;;;19.30;13.03;;;11.30;99.90;;;;;;4991740;28;20191;-83
2020/12/14 09:54:24;;;;;;;19.50;10.43;;;10.10;99.90;;;;;;4981089;28;20431;-82
2020/12/14 09:56:50;;;;;;;16.17;10.20;;;9.20;99.90;;;;;;4992142;28;20203;-83
2020/12/14 09:59:16;;;;;;;15.47;9.73;;;8.70;99.90;;;;;;4993011;28;20163;-82
2020/12/14 10:01:42;;;;;;;18.17;11.20;;;8.40;99.90;;;;;;4990318;28;20178;-81
2020/12/14 10:04:07;;;;;;;18.97;10.97;;;8.20;99.90;;;;;;4989632;28;20436;-81
2020/12/14 10:06:33;;;;;;;14.83;9.90;;;8.00;99.90;;;;;;4972745;28;20210;-82
2020/12/14 10:08:59;;;;;;;18.63;11.20;;;7.80;99.90;;;;;;4973489;28;20179;-81
2020/12/14 10:11:33;;;;;;;22.97;12.60;;;7.80;99.90;;;;;;4974647;28;20199;-81
2020/12/14 10:14:00;;;;;;;19.33;11.20;;;7.70;99.90;;;;;;4992788;28;20420;-81
2020/12/14 10:16:26;;;;;;;19.15;10.90;;;7.60;99.90;;;;;;4993838;28;20203;-82
2020/12/14 10:18:52;;;;;;;20.27;11.50;;;7.70;99.90;;;;;;4962930;28;20198;-81
2020/12/14 10:21:18;;;;;;;21.03;10.97;;;7.60;99.90;;;;;;4994982;28;20419;-83
2020/12/14 10:23:47;;;;;;;17.80;10.83;;;7.70;99.90;;;;;;4994066;28;20406;-82
2020/12/14 10:26:14;;;;;;;21.38;11.13;;;7.70;99.90;;;;;;4994030;28;20503;-82
2020/12/14 10:28:40;;;;;;;16.73;9.75;;;7.60;99.90;;;;;;4995183;28;20266;-83
2020/12/14 10:31:07;;;;;;;19.80;10.45;;;7.60;99.90;;;;;;4995300;28;20255;-83
2020/12/14 10:33:36;;;;;;;13.65;8.80;;;7.70;99.90;;;;;;4995596;28;20251;-82
2020/12/14 10:36:10;;;;;;;19.42;9.90;;;7.70;99.90;;;;;;4996326;28;20191;-81
2020/12/14 10:38:44;;;;;;;21.25;9.38;;;7.60;99.90;;;;;;4995280;28;20171;-82
2020/12/14 10:41:10;;;;;;;17.10;9.50;;;7.60;99.90;;;;;;4978323;28;20204;-82
2020/12/14 10:44:22;;;;;;;14.40;9.10;;;7.70;99.90;;;;;;4991822;28;20175;-82
2020/12/14 10:46:48;;;;;;;16.23;10.30;;;7.70;99.90;;;;;;4980089;28;20973;-82
2020/12/14 10:49:18;;;;;;;25.77;11.70;;;7.70;99.90;;;;;;4982709;28;20214;-83
2020/12/14 10:51:47;;;;;;;25.73;10.05;;;7.80;99.90;;;;;;4986259;28;20172;-83
2020/12/14 10:54:13;;;;;;;20.38;10.57;;;7.80;99.90;;;;;;4970841;28;20183;-82
2020/12/14 10:56:39;;;;;;;17.58;9.55;;;7.80;99.90;;;;;;4989727;28;20207;-82
2020/12/14 10:59:04;;;;;;;13.47;8.37;;;7.90;99.90;;;;;;4951936;28;20182;-82
2020/12/14 11:01:30;;;;;;;15.00;9.07;;;7.90;99.90;;;;;;4982921;28;20195;-83
2020/12/14 11:03:56;;;;;;;18.00;10.03;;;7.90;99.90;;;;;;4986672;28;20199;-83
2020/12/14 11:06:28;;;;;;;19.90;10.63;;;7.90;99.90;;;;;;4972912;28;20687;-83
2020/12/14 11:08:54;;;;;;;15.13;8.85;;;8.00;99.90;;;;;;4986707;28;20167;-84
2020/12/14 11:11:20;;;;;;;20.53;10.00;;;8.00;99.90;;;;;;4982622;28;20187;-82
2020/12/14 11:13:48;;;;;;;18.47;9.83;;;8.10;99.90;;;;;;4982068;28;20502;-84
2020/12/14 11:16:13;;;;;;;18.13;9.90;;;7.90;99.90;;;;;;4965272;28;20294;-83
2020/12/14 11:18:39;;;;;;;16.40;9.00;;;8.10;99.90;;;;;;4981937;28;20199;-83
2020/12/14 11:21:06;;;;;;;20.07;10.07;;;8.00;99.90;;;;;;4981422;28;20187;-83
2020/12/14 11:23:32;;;;;;;14.75;8.98;;;8.10;99.90;;;;;;4964680;28;20175;-83
2020/12/14 11:25:58;;;;;;;16.58;9.75;;;8.00;99.90;;;;;;4964351;28;20195;-83
2020/12/14 11:28:25;;;;;;;14.40;9.37;;;8.00;99.90;;;;;;4982054;28;20178;-84
2020/12/14 11:30:50;;;;;;;19.70;8.90;;;8.10;99.90;;;;;;4982143;28;20190;-82
2020/12/14 11:33:16;;;;;;;19.33;8.63;;;8.20;99.90;;;;;;4981392;28;20183;-84
2020/12/14 11:35:45;;;;;;;20.33;10.80;;;8.20;99.90;;;;;;4981549;28;20444;-82
2020/12/14 11:38:11;;;;;;;13.00;8.73;;;8.30;99.90;;;;;;4981621;28;20524;-81
2020/12/14 11:40:36;;;;;;;18.50;9.60;;;8.20;99.90;;;;;;4980734;28;20222;-83
2020/12/14 11:43:02;;;;;;;15.37;9.57;;;8.20;99.90;;;;;;4980899;28;20202;-83
2020/12/14 11:48:45;;;;;;;16.13;10.07;;;8.30;99.90;;;;;;4964184;28;20663;-87
2020/12/14 11:51:47;;;;;;;;;;;;;;;;;;;;;
2020/12/14 11:54:33;;;;;;;23.25;8.45;;;8.20;99.90;;;;;;4943834;28;20263;-85
2020/12/14 11:57:14;;;;;;;16.27;9.20;;;8.30;99.90;;;;;;4979450;28;20214;-85
2020/12/14 12:00:08;;;;;;;16.25;8.98;;;8.20;99.90;;;;;;4972119;28;20179;-86
2020/12/14 12:02:34;;;;;;;17.73;8.15;;;8.20;99.90;;;;;;4944328;29;20176;-84
2020/12/14 12:05:00;;;;;;;15.57;8.07;;;8.20;99.90;;;;;;4976365;28;20210;-85
2020/12/14 12:11:58;;;;;;;16.05;8.75;;;8.10;99.90;;;;;;4956369;28;20179;-85
2020/12/14 12:14:51;;;;;;;17.45;9.32;;;8.20;99.90;;;;;;4980086;28;20178;-85
2020/12/14 12:17:30;;;;;;;14.50;7.05;;;8.20;99.90;;;;;;4976530;28;20203;-85
2020/12/14 12:20:51;;;;;;;16.48;7.63;;;8.30;99.90;;;;;;4963557;28;20446;-86
2020/12/14 12:23:29;;;;;;;14.52;8.15;;;8.20;99.90;;;;;;4977549;28;20195;-84
2020/12/14 12:26:43;;;;;;;13.50;7.85;;;8.30;99.90;;;;;;5021752;23;20261;-84
2020/12/14 12:29:08;;;;;;;13.55;8.60;;;8.30;99.90;;;;;;4978563;28;20187;-84
2020/12/14 12:32:17;;;;;;;16.03;8.97;;;8.20;99.90;;;;;;4980458;28;20217;-85
2020/12/14 12:35:00;;;;;;;16.55;8.60;;;8.20;99.90;;;;;;4988704;28;20238;-85
2020/12/14 12:38:13;;;;;;;11.48;7.35;;;8.20;99.90;;;;;;4979199;28;20202;-84
2020/12/14 12:40:53;;;;;;;16.33;7.70;;;8.20;99.90;;;;;;4995030;28;20182;-86
2020/12/14 12:49:00;;;;;;;12.88;8.60;;;8.30;99.90;;;;;;5044936;23;20234;-85
2020/12/14 12:51:53;;;;;;;13.32;7.40;;;8.40;99.90;;;;;;5019281;28;20178;-85
2020/12/14 12:57:40;;;;;;;16.20;9.18;;;8.50;99.90;;;;;;4919293;28;20743;-84
2020/12/14 13:00:40;;;;;;;14.63;8.70;;;8.50;99.90;;;;;;4980928;28;20167;-84
2020/12/14 13:03:11;;;;;;;13.43;9.02;;;8.40;99.90;;;;;;4963418;28;20263;-86
2020/12/14 13:05:47;;;;;;;16.73;9.20;;;8.40;99.90;;;;;;4919058;29;20316;-83
2020/12/14 13:12:11;;;;;;;14.18;8.20;;;8.40;99.90;;;;;;4945447;28;20199;-84
2020/12/14 13:21:46;;;;;;;13.13;7.43;;;8.50;99.90;;;;;;4957469;29;20281;-84